Terminal Aerodrome Forecast
Issued by NWS

Home | Current Version | Previous Version | Text Only | Print | Product List | Glossary On
Versions: 1 2 3 4 5 6 7 8 9 10 11 12 13 14
000
FTUS45 KRIW 021100
TAFCPR
TAF
KCPR 021122Z 0212/0312 VRB05KT P6SM SKC
     FM021400 22008KT P6SM SKC
     FM021800 24018G30KT P6SM SKC
     FM030130 23010G15KT P6SM SKC=

USA.gov is the U.S. government's official web portal to all federal, state and local government web resources and services.